Time;durP1;ratioP1;P1;durP2;ratioP2;P2;SDS_P1;SDS_P2;PMS_P1;PMS_P2;Temp;Humidity;BMP_temperature;BMP_pressure;BME280_temperature;BME280_humidity;BME280_pressure;Samples;Min_cycle;Max_cycle;Signal;HPM_P1;HPM_P2
2023/06/26 00:00:40;;;;;;;6.70;4.40;;;;;;;21.48;88.43;96561.06;5105000;28;20295;-81
2023/06/26 00:03:48;;;;;;;6.20;4.40;;;;;;;21.64;88.44;96581.47;5105050;28;20204;-80
2023/06/26 00:07:10;;;;;;;7.47;4.60;;;;;;;21.64;87.93;96574.41;5105472;28;20190;-81
2023/06/26 00:10:51;;;;;;;8.67;4.90;;;;;;;21.53;88.85;96574.66;5107522;28;20200;-78
2023/06/26 00:14:13;;;;;;;6.17;4.47;;;;;;;21.62;88.08;96586.06;5107777;28;20223;-80
2023/06/26 00:17:36;;;;;;;7.47;5.20;;;;;;;21.65;87.44;96588.44;5103395;28;20192;-79
2023/06/26 00:20:57;;;;;;;9.30;5.23;;;;;;;21.64;87.92;96589.38;5087463;28;20228;-80
2023/06/26 00:24:18;;;;;;;6.47;5.00;;;;;;;21.22;90.06;96589.09;5104230;28;20196;-79
2023/06/26 00:27:43;;;;;;;8.90;5.20;;;;;;;20.68;93.02;96592.47;5105375;28;20195;-79
2023/06/26 00:31:04;;;;;;;8.10;5.10;;;;;;;21.06;92.04;96579.19;5086414;28;20196;-77
2023/06/26 00:34:25;;;;;;;9.57;5.40;;;;;;;21.12;92.49;96571.69;5101997;28;20197;-80
2023/06/26 00:37:48;;;;;;;8.17;4.50;;;;;;;21.29;90.16;96576.19;5102862;28;20186;-78
2023/06/26 00:41:12;;;;;;;8.70;4.83;;;;;;;21.26;89.23;96561.50;5107034;28;20799;-79
2023/06/26 00:44:33;;;;;;;8.87;3.50;;;;;;;21.40;86.68;96575.97;5105305;28;20197;-79
2023/06/26 00:47:55;;;;;;;4.67;3.50;;;;;;;21.37;85.14;96573.63;5104331;28;20213;-78
2023/06/26 00:51:17;;;;;;;3.67;2.47;;;;;;;21.20;83.02;96563.88;5087083;28;20675;-79
2023/06/26 00:54:39;;;;;;;3.93;2.73;;;;;;;21.34;82.82;96574.75;5087006;28;20203;-79
2023/06/26 00:58:01;;;;;;;4.53;2.23;;;;;;;21.34;82.34;96573.91;5104262;28;20184;-81
2023/06/26 01:01:25;;;;;;;3.47;2.20;;;;;;;21.39;80.75;96571.69;5107703;28;20188;-79
2023/06/26 01:04:50;;;;;;;2.40;2.17;;;;;;;21.33;81.63;96573.09;5092192;28;20187;-79
2023/06/26 01:08:15;;;;;;;3.80;2.27;;;;;;;21.33;82.28;96582.81;5106566;28;20373;-77
2023/06/26 01:11:38;;;;;;;3.60;2.60;;;;;;;21.26;83.07;96571.19;5109147;28;20207;-83
2023/06/26 01:15:00;;;;;;;3.40;2.17;;;;;;;21.19;82.74;96576.22;5090485;28;20184;-77
2023/06/26 01:18:22;;;;;;;2.97;2.17;;;;;;;21.19;83.04;96572.75;5106349;28;20762;-83
2023/06/26 01:21:45;;;;;;;2.87;1.93;;;;;;;21.17;82.52;96564.16;5101409;28;20195;-78
2023/06/26 01:25:06;;;;;;;4.07;2.10;;;;;;;20.90;84.03;96564.94;5085846;28;20189;-79
2023/06/26 01:28:27;;;;;;;6.17;2.30;;;;;;;20.94;83.91;96561.88;5086724;28;20317;-78
2023/06/26 01:31:49;;;;;;;4.27;2.33;;;;;;;20.56;85.24;96556.78;5086710;28;20189;-77
2023/06/26 01:35:11;;;;;;;3.43;2.37;;;;;;;20.58;85.14;96561.88;5085282;28;20618;-77
2023/06/26 01:38:32;;;;;;;3.90;2.30;;;;;;;20.58;84.32;96552.19;5085099;28;20188;-78
2023/06/26 01:41:53;;;;;;;3.40;2.73;;;;;;;20.55;83.25;96539.31;5086206;28;20238;-78
2023/06/26 01:45:14;;;;;;;4.87;2.70;;;;;;;20.48;83.85;96532.97;5086246;28;20725;-77
2023/06/26 01:48:35;;;;;;;3.93;2.50;;;;;;;20.37;83.46;96517.34;5085407;28;20193;-79
2023/06/26 01:51:56;;;;;;;4.97;2.50;;;;;;;20.63;83.10;96525.47;5087179;28;20188;-79
2023/06/26 01:55:18;;;;;;;2.53;2.30;;;;;;;20.91;80.85;96535.88;5085717;28;20203;-80
2023/06/26 01:58:41;;;;;;;4.57;3.40;;;;;;;20.98;80.84;96534.28;5085962;28;20258;-80
2023/06/26 02:02:02;;;;;;;3.63;2.77;;;;;;;21.10;80.09;96524.44;5085954;28;20187;-79
2023/06/26 02:05:26;;;;;;;3.80;2.70;;;;;;;21.17;80.42;96537.81;5087324;28;20310;-79
2023/06/26 02:08:14;;;;;;;4.50;2.83;;;;;;;21.15;79.32;96524.81;5083751;28;20221;-78
2023/06/26 02:10:48;;;;;;;3.90;2.80;;;;;;;21.30;78.96;96539.16;5086955;28;20197;-80
2023/06/26 02:13:17;;;;;;;4.03;2.70;;;;;;;21.13;78.73;96525.94;5068710;28;20547;-81
2023/06/26 02:15:44;;;;;;;5.17;2.97;;;;;;;21.17;79.38;96536.03;5053304;28;20607;-80
2023/06/26 02:18:13;;;;;;;3.90;2.90;;;;;;;21.25;80.19;96536.13;5086097;28;20188;-81
2023/06/26 02:20:43;;;;;;;4.27;2.97;;;;;;;21.25;80.82;96545.81;5087071;28;20243;-82
2023/06/26 02:23:50;;;;;;;4.53;3.23;;;;;;;21.16;81.15;96549.34;5086333;28;20706;-80
2023/06/26 02:27:12;;;;;;;3.47;2.50;;;;;;;21.31;81.14;96547.88;5087008;28;20639;-83
2023/06/26 02:30:33;;;;;;;5.07;2.83;;;;;;;21.33;81.40;96546.75;5085926;28;20283;-79
2023/06/26 02:33:56;;;;;;;5.57;2.80;;;;;;;21.26;81.14;96543.06;5087192;28;20300;-82
2023/06/26 02:37:17;;;;;;;5.00;3.10;;;;;;;21.21;82.09;96555.00;5087600;28;20205;-81
2023/06/26 02:40:38;;;;;;;6.10;3.30;;;;;;;21.15;82.18;96545.03;5087681;28;20231;-79
2023/06/26 02:44:00;;;;;;;3.73;3.00;;;;;;;21.28;81.42;96548.16;5091376;28;20203;-76
2023/06/26 02:47:22;;;;;;;4.83;3.40;;;;;;;21.27;80.77;96543.88;5087573;28;20193;-77
2023/06/26 02:50:45;;;;;;;5.77;3.37;;;;;;;21.28;79.64;96553.44;5089073;28;20190;-81
2023/06/26 02:54:09;;;;;;;7.97;4.33;;;;;;;21.27;79.54;96549.16;5070005;28;20196;-79
2023/06/26 02:57:34;;;;;;;7.17;3.93;;;;;;;21.27;79.83;96552.59;5084798;28;20680;-79
2023/06/26 03:00:56;;;;;;;6.47;4.30;;;;;;;21.16;80.22;96538.81;5083206;28;20236;-77
2023/06/26 03:04:21;;;;;;;8.03;4.67;;;;;;;21.20;80.04;96545.44;5084618;28;20263;-75
2023/06/26 03:07:20;;;;;;;6.93;4.03;;;;;;;21.13;80.14;96555.72;5085572;28;20240;-78
2023/06/26 03:10:29;;;;;;;5.27;4.00;;;;;;;21.07;80.54;96551.06;5087574;28;20230;-77
2023/06/26 03:13:52;;;;;;;5.83;4.07;;;;;;;21.25;80.41;96559.81;5068011;28;20203;-78
2023/06/26 03:17:13;;;;;;;6.93;4.40;;;;;;;21.15;80.90;96574.00;5078523;28;20259;-79
2023/06/26 03:20:41;;;;;;;6.93;3.93;;;;;;;21.07;81.13;96553.69;5105969;28;20663;-79
2023/06/26 03:24:03;;;;;;;6.47;4.30;;;;;;;21.23;80.83;96567.03;5090590;28;20192;-77
2023/06/26 03:27:25;;;;;;;5.47;4.27;;;;;;;21.20;81.38;96575.25;5083952;28;20192;-76
2023/06/26 03:30:46;;;;;;;6.17;4.07;;;;;;;21.26;80.38;96587.00;5083048;28;20235;-81
2023/06/26 03:34:07;;;;;;;7.23;4.47;;;;;;;21.37;79.71;96574.44;5084546;28;20185;-79
2023/06/26 03:37:28;;;;;;;7.03;4.30;;;;;;;21.48;79.69;96590.06;5091010;28;20856;-78
2023/06/26 03:40:49;;;;;;;6.03;4.60;;;;;;;21.55;79.83;96579.75;5099625;28;20666;-79
2023/06/26 03:44:12;;;;;;;5.67;4.87;;;;;;;21.49;80.03;96575.09;5097505;28;20195;-80
2023/06/26 03:47:33;;;;;;;7.30;4.97;;;;;;;21.62;79.59;96588.72;5088358;28;20671;-78
2023/06/26 03:50:54;;;;;;;6.97;4.37;;;;;;;21.58;79.88;96579.44;5092236;28;20245;-77
2023/06/26 03:54:15;;;;;;;6.60;4.40;;;;;;;21.55;78.91;96566.59;5108017;28;20196;-78
2023/06/26 03:57:36;;;;;;;8.67;4.27;;;;;;;21.43;79.61;96562.50;5104532;28;20199;-77
2023/06/26 04:00:57;;;;;;;6.73;4.47;;;;;;;21.47;79.69;96574.41;5105877;28;20229;-78
2023/06/26 04:04:19;;;;;;;8.93;4.60;;;;;;;21.47;79.55;96571.78;5105620;28;20215;-78
2023/06/26 04:07:39;;;;;;;8.90;4.03;;;;;;;21.57;79.04;96572.53;5105650;28;20223;-79
2023/06/26 04:11:04;;;;;;;8.03;4.20;;;;;;;21.48;78.70;96553.16;5099565;28;20208;-78
2023/06/26 04:14:24;;;;;;;7.47;4.13;;;;;;;21.51;78.91;96579.25;5087504;28;20777;-78
2023/06/26 04:17:46;;;;;;;7.03;4.03;;;;;;;21.58;78.38;96571.53;5097741;28;20196;-81
2023/06/26 04:21:08;;;;;;;4.83;4.00;;;;;;;21.63;78.15;96554.31;5070344;28;20228;-78
2023/06/26 04:24:30;;;;;;;6.93;4.30;;;;;;;21.76;77.75;96582.94;5084111;28;20201;-79
2023/06/26 04:27:52;;;;;;;9.20;4.67;;;;;;;21.86;78.42;96578.47;5085152;28;20235;-78
2023/06/26 04:31:13;;;;;;;7.43;4.97;;;;;;;22.07;78.28;96581.59;5088390;28;20309;-78
2023/06/26 04:34:36;;;;;;;5.00;3.90;;;;;;;22.08;77.82;96575.38;5104282;28;20208;-80
2023/06/26 04:37:57;;;;;;;6.13;3.87;;;;;;;22.23;77.77;96588.84;5107213;28;20200;-80
2023/06/26 04:41:17;;;;;;;5.90;3.60;;;;;;;22.16;76.40;96587.78;5109169;28;20219;-81
2023/06/26 04:44:41;;;;;;;6.37;3.73;;;;;;;22.02;76.92;96594.44;5108165;28;20310;-80
2023/06/26 04:48:01;;;;;;;4.93;3.53;;;;;;;21.99;77.64;96594.72;5110364;28;20273;-80
2023/06/26 04:51:22;;;;;;;4.93;3.50;;;;;;;21.88;77.00;96601.03;5109079;28;20198;-78
2023/06/26 04:54:43;;;;;;;6.53;3.30;;;;;;;21.72;77.65;96600.03;5108663;28;20658;-80
2023/06/26 04:58:03;;;;;;;6.77;3.90;;;;;;;21.65;77.78;96615.63;5107385;28;20584;-80
2023/06/26 05:01:25;;;;;;;6.43;4.17;;;;;;;21.66;79.15;96613.78;5108513;28;20892;-80
2023/06/26 05:04:47;;;;;;;8.23;4.23;;;;;;;21.64;79.62;96613.09;5109949;28;20707;-79
2023/06/26 05:08:12;;;;;;;8.63;4.63;;;;;;;21.71;81.92;96628.22;5094589;28;20234;-81
2023/06/26 05:11:34;;;;;;;6.90;4.33;;;;;;;21.52;83.63;96619.56;5108317;28;20241;-81
2023/06/26 05:14:55;;;;;;;7.60;4.63;;;;;;;21.49;85.36;96619.88;5107400;28;20189;-80
2023/06/26 05:18:15;;;;;;;9.47;4.03;;;;;;;21.47;86.31;96627.09;5107917;28;20743;-78
2023/06/26 05:21:36;;;;;;;8.00;3.90;;;;;;;21.34;86.59;96621.34;5110451;28;20184;-80
2023/06/26 05:24:58;;;;;;;7.83;3.80;;;;;;;21.33;86.88;96635.50;5093685;28;20281;-79
2023/06/26 05:28:20;;;;;;;5.47;3.30;;;;;;;21.30;87.28;96630.50;5105616;28;20735;-79
2023/06/26 05:31:41;;;;;;;6.00;2.87;;;;;;;21.35;86.68;96617.75;5107488;28;20191;-79
2023/06/26 05:35:06;;;;;;;5.67;3.50;;;;;;;21.48;86.00;96632.22;5109302;28;20193;-80
2023/06/26 05:38:27;;;;;;;8.97;4.47;;;;;;;21.66;85.14;96632.25;5092052;28;20193;-77
2023/06/26 05:41:48;;;;;;;6.87;4.33;;;;;;;21.55;85.50;96645.63;5108194;28;20287;-79
2023/06/26 05:45:09;;;;;;;5.57;3.00;;;;;;;21.61;83.79;96639.78;5091084;28;20196;-80
2023/06/26 05:48:31;;;;;;;4.70;3.10;;;;;;;21.66;84.16;96632.25;5108008;28;20184;-80
2023/06/26 05:51:53;;;;;;;5.23;3.80;;;;;;;21.70;84.83;96638.91;5106849;28;20293;-82
2023/06/26 05:55:15;;;;;;;5.17;3.10;;;;;;;21.71;84.26;96648.47;5107043;28;20201;-80
2023/06/26 05:58:36;;;;;;;4.17;3.17;;;;;;;21.68;84.60;96641.66;5107081;28;20192;-80
2023/06/26 06:01:59;;;;;;;6.37;3.83;;;;;;;21.72;86.87;96650.13;5104196;28;20734;-79
2023/06/26 06:05:21;;;;;;;6.63;3.80;;;;;;;21.57;86.79;96641.06;5088582;28;20204;-81
2023/06/26 06:08:42;;;;;;;6.47;4.00;;;;;;;21.37;87.40;96627.13;5089000;28;20228;-79
2023/06/26 06:12:05;;;;;;;5.13;3.10;;;;;;;21.37;87.55;96640.31;5105982;28;20660;-81
2023/06/26 06:15:33;;;;;;;5.13;3.73;;;;;;;21.57;87.78;96673.50;5108364;28;20291;-82
2023/06/26 06:18:54;;;;;;;4.67;3.00;;;;;;;21.27;89.04;96659.78;5110409;28;20196;-79
2023/06/26 06:22:17;;;;;;;5.73;3.37;;;;;;;21.12;91.24;96658.59;5110187;28;20195;-81
2023/06/26 06:25:38;;;;;;;4.83;2.80;;;;;;;21.14;90.10;96659.28;5107441;28;20253;-79
2023/06/26 06:29:00;;;;;;;5.30;3.10;;;;;;;20.97;92.16;96661.66;5090712;28;20652;-78
2023/06/26 06:32:21;;;;;;;7.77;3.57;;;;;;;20.98;91.58;96662.47;5106840;28;20188;-78
2023/06/26 06:35:41;;;;;;;4.93;3.10;;;;;;;20.70;91.32;96658.94;5088709;28;20252;-80
2023/06/26 06:39:03;;;;;;;4.77;4.27;;;;;;;20.79;92.56;96660.72;5107284;28;20183;-83
2023/06/26 06:42:26;;;;;;;6.80;4.43;;;;;;;20.95;90.81;96655.72;5106186;28;20188;-82
2023/06/26 06:45:49;;;;;;;6.60;4.00;;;;;;;21.08;91.06;96653.59;5111661;28;20195;-77
2023/06/26 06:49:09;;;;;;;4.80;3.97;;;;;;;21.08;89.83;96665.97;5108642;28;20206;-81
2023/06/26 06:52:33;;;;;;;7.90;4.50;;;;;;;21.08;90.62;96669.41;5089690;28;20646;-80
2023/06/26 06:55:54;;;;;;;6.70;4.20;;;;;;;21.17;89.98;96677.41;5108317;28;20184;-81
2023/06/26 06:59:16;;;;;;;5.93;3.97;;;;;;;20.98;89.73;96660.66;5087281;28;20295;-76
2023/06/26 07:02:47;;;;;;;8.33;5.87;;;;;;;20.47;94.29;96665.47;5069156;28;20267;-80
2023/06/26 07:06:09;;;;;;;8.83;4.77;;;;;;;20.32;94.15;96653.72;5090958;28;20244;-82
2023/06/26 07:09:43;;;;;;;7.30;5.10;;;;;;;20.41;94.68;96676.56;5093063;28;20272;-80
2023/06/26 07:13:03;;;;;;;7.93;5.07;;;;;;;20.53;94.14;96678.06;5091923;28;20220;-78
2023/06/26 07:16:27;;;;;;;12.50;5.77;;;;;;;20.99;92.42;96675.50;5086588;28;20250;-81
2023/06/26 07:19:49;;;;;;;8.23;4.50;;;;;;;21.29;90.13;96684.19;5085022;28;20228;-80
2023/06/26 07:23:10;;;;;;;6.77;4.33;;;;;;;21.36;88.01;96679.97;5064334;28;20261;-81
2023/06/26 07:26:31;;;;;;;5.87;4.50;;;;;;;21.41;88.47;96697.00;5085563;28;20208;-79
2023/06/26 07:29:52;;;;;;;6.93;4.53;;;;;;;21.45;87.80;96702.84;5086744;28;20286;-78
2023/06/26 07:33:15;;;;;;;4.67;3.63;;;;;;;21.03;89.58;96708.50;5083778;28;20279;-77
2023/06/26 07:36:37;;;;;;;8.17;4.60;;;;;;;20.63;91.72;96715.72;5087070;28;20181;-75
2023/06/26 07:39:59;;;;;;;6.43;3.37;;;;;;;20.33;95.37;96713.25;5087332;28;20617;-76
2023/06/26 07:43:20;;;;;;;4.60;3.47;;;;;;;20.39;93.69;96709.22;5085395;28;20194;-82
2023/06/26 07:46:42;;;;;;;4.07;2.90;;;;;;;20.39;93.42;96714.50;5086187;28;20669;-79
2023/06/26 07:50:02;;;;;;;4.10;2.53;;;;;;;20.39;93.51;96717.97;5083847;28;20193;-84
2023/06/26 07:53:24;;;;;;;3.40;2.70;;;;;;;20.59;91.27;96724.88;5089000;28;20368;-82
2023/06/26 07:56:44;;;;;;;3.70;2.37;;;;;;;20.44;92.04;96721.03;5089857;28;20186;-76
2023/06/26 08:00:06;;;;;;;4.17;2.50;;;;;;;20.56;91.12;96712.00;5078281;28;20239;-77
2023/06/26 08:03:27;;;;;;;4.30;2.33;;;;;;;20.53;92.27;96721.97;5087605;28;20192;-78
2023/06/26 08:06:48;;;;;;;4.10;2.67;;;;;;;20.58;91.23;96710.06;5084762;28;20218;-78
2023/06/26 08:10:11;;;;;;;3.57;2.10;;;;;;;20.45;91.35;96703.41;5084708;28;20199;-81
2023/06/26 08:13:31;;;;;;;1.60;1.13;;;;;;;20.14;91.43;96714.03;5067610;28;20236;-81
2023/06/26 08:16:52;;;;;;;4.43;2.27;;;;;;;20.31;90.54;96696.78;5085476;28;20272;-82
2023/06/26 08:20:13;;;;;;;3.67;2.80;;;;;;;20.85;89.44;96715.44;5100615;28;20219;-78
2023/06/26 08:23:34;;;;;;;2.20;1.70;;;;;;;20.99;87.26;96720.28;5086851;28;20196;-78
2023/06/26 08:26:55;;;;;;;2.53;1.30;;;;;;;21.18;88.58;96708.91;5087422;28;20192;-78
2023/06/26 08:30:17;;;;;;;3.03;1.50;;;;;;;21.54;87.70;96717.75;5081299;28;20211;-82
2023/06/26 08:33:40;;;;;;;1.60;1.50;;;;;;;21.44;87.23;96717.81;5083696;28;20201;-80
2023/06/26 08:37:00;;;;;;;2.00;1.60;;;;;;;20.76;90.26;96705.75;5085462;28;20284;-80
2023/06/26 08:40:21;;;;;;;2.30;1.70;;;;;;;20.86;91.15;96709.19;5084009;28;20225;-81
2023/06/26 08:43:42;;;;;;;2.47;1.63;;;;;;;20.79;90.09;96713.34;5101818;28;20264;-78
2023/06/26 08:47:02;;;;;;;4.07;3.07;;;;;;;20.57;91.23;96718.06;5069516;28;20256;-79
2023/06/26 08:50:27;;;;;;;4.03;2.17;;;;;;;20.64;91.61;96714.78;5094700;28;20201;-76
2023/06/26 08:53:47;;;;;;;4.97;3.33;;;;;;;20.62;93.59;96708.81;5071873;28;20188;-76
2023/06/26 08:57:10;;;;;;;3.77;2.60;;;;;;;20.34;91.06;96658.84;5086858;28;20208;-81
2023/06/26 09:00:34;;;;;;;2.63;2.43;;;;;;;20.78;90.82;96711.72;5083817;28;20321;-76
2023/06/26 09:03:56;;;;;;;4.67;3.53;;;;;;;20.76;91.14;96718.91;5084906;28;20508;-78
2023/06/26 09:07:17;;;;;;;3.83;3.43;;;;;;;20.59;90.45;96724.88;5083457;28;20196;-77
2023/06/26 09:10:38;;;;;;;2.40;1.93;;;;;;;20.21;91.63;96724.88;5084797;28;20191;-79
2023/06/26 09:13:59;;;;;;;2.03;1.83;;;;;;;20.01;92.59;96721.34;5086578;28;20598;-78
2023/06/26 09:17:19;;;;;;;1.87;1.63;;;;;;;19.91;93.48;96715.22;5083213;28;20196;-78
2023/06/26 09:20:43;;;;;;;1.87;1.67;;;;;;;20.04;93.26;96726.34;5083365;28;20235;-80
2023/06/26 09:24:05;;;;;;;2.90;1.80;;;;;;;20.24;92.79;96730.69;5087720;28;20193;-79
2023/06/26 09:27:26;;;;;;;3.40;2.40;;;;;;;20.55;91.83;96723.50;5073080;28;20544;-78
2023/06/26 09:30:47;;;;;;;3.47;2.40;;;;;;;21.04;89.96;96723.31;5088885;28;20215;-82
2023/06/26 09:34:10;;;;;;;3.70;2.57;;;;;;;21.24;88.08;96710.13;5088682;28;20192;-77
2023/06/26 09:37:34;;;;;;;4.27;2.53;;;;;;;21.55;87.61;96733.44;5056616;28;20201;-79
2023/06/26 09:40:54;;;;;;;3.97;3.03;;;;;;;21.89;88.13;96741.63;5071813;28;20220;-79
2023/06/26 09:44:15;;;;;;;4.80;3.30;;;;;;;21.99;88.27;96745.03;5089412;28;20217;-80
2023/06/26 09:47:36;;;;;;;3.63;3.30;;;;;;;21.69;87.78;96706.59;5086048;28;20201;-80
2023/06/26 09:51:01;;;;;;;4.80;2.87;;;;;;;22.11;88.41;96733.34;5069002;28;20225;-79
2023/06/26 09:54:21;;;;;;;3.63;2.60;;;;;;;22.32;85.48;96741.78;5070836;28;20189;-77
2023/06/26 09:57:50;;;;;;;4.53;3.57;;;;;;;22.33;84.76;96748.72;5086987;28;20195;-78
2023/06/26 10:01:10;;;;;;;2.93;2.17;;;;;;;22.46;84.65;96751.00;5071796;28;20221;-82
2023/06/26 10:04:31;;;;;;;2.83;2.30;;;;;;;22.22;86.36;96746.28;5087380;28;20187;-78
2023/06/26 10:07:54;;;;;;;3.33;2.67;;;;;;;22.27;86.35;96754.59;5087785;28;20232;-80
2023/06/26 10:11:14;;;;;;;4.73;2.40;;;;;;;22.28;86.40;96756.25;5088063;28;20191;-80
2023/06/26 10:14:35;;;;;;;3.83;2.40;;;;;;;22.47;85.36;96750.00;5071270;28;20282;-81
2023/06/26 10:17:22;;;;;;;3.53;2.73;;;;;;;22.35;86.29;96709.84;5084419;28;20193;-79
2023/06/26 10:20:29;;;;;;;3.20;2.90;;;;;;;22.52;84.80;96729.28;5069203;28;20309;-80
2023/06/26 10:23:52;;;;;;;3.23;2.27;;;;;;;22.73;84.38;96739.56;5086527;28;20245;-80
2023/06/26 10:27:13;;;;;;;2.83;2.40;;;;;;;22.85;85.17;96733.06;5087238;28;20711;-79
2023/06/26 10:30:37;;;;;;;4.30;3.17;;;;;;;22.58;84.26;96719.00;5086797;28;20739;-78
2023/06/26 10:33:57;;;;;;;3.23;2.27;;;;;;;22.98;83.83;96728.22;5087760;28;20199;-77
2023/06/26 10:37:21;;;;;;;2.10;1.90;;;;;;;23.02;81.17;96721.66;5070208;28;20198;-78
2023/06/26 10:40:45;;;;;;;5.60;4.57;;;;;;;23.10;81.51;96700.56;5086620;28;20218;-79
2023/06/26 10:44:07;;;;;;;3.43;2.57;;;;;;;23.36;81.21;96719.91;5087355;28;20191;-79
2023/06/26 10:47:48;;;;;;;2.57;2.20;;;;;;;23.34;82.22;96706.88;5071287;28;20219;-78
2023/06/26 10:51:10;;;;;;;5.30;2.80;;;;;;;23.68;82.39;96713.97;5085903;28;20271;-79
2023/06/26 10:54:31;;;;;;;3.33;2.63;;;;;;;23.54;80.51;96704.81;5088259;28;20277;-77
2023/06/26 10:58:03;;;;;;;3.40;2.47;;;;;;;23.81;77.76;96699.31;5091164;28;20192;-81
2023/06/26 11:01:11;;;;;;;10.20;8.37;;;;;;;24.09;77.68;96711.31;5085474;28;20606;-79
2023/06/26 11:03:58;;;;;;;12.23;9.70;;;;;;;24.07;77.09;96715.94;5087120;28;20198;-79
2023/06/26 11:07:19;;;;;;;11.10;10.10;;;;;;;24.11;77.73;96712.00;5086559;28;20215;-80
2023/06/26 11:10:40;;;;;;;5.27;3.20;;;;;;;24.10;77.03;96701.56;5085901;28;20220;-82
2023/06/26 11:14:01;;;;;;;5.70;3.90;;;;;;;24.18;75.60;96707.72;5088069;28;20689;-80
2023/06/26 11:17:23;;;;;;;5.13;4.17;;;;;;;24.28;74.50;96696.97;5088403;28;20188;-81
2023/06/26 11:20:47;;;;;;;4.83;3.30;;;;;;;24.43;71.94;96665.41;5055580;28;20217;-80
2023/06/26 11:24:10;;;;;;;7.10;3.63;;;;;;;24.80;71.71;96694.91;5087885;28;20266;-80
2023/06/26 11:27:51;;;;;;;4.60;3.27;;;;;;;24.58;67.22;96663.75;5085177;28;20189;-80
2023/06/26 11:32:18;;;;;;;6.10;3.93;;;;;;;24.73;68.67;96676.19;5087962;28;20195;-81
2023/06/26 11:36:26;;;;;;;6.83;3.83;;;;;;;24.93;70.88;96677.53;5082754;28;20206;-81
2023/06/26 11:39:51;;;;;;;6.00;4.53;;;;;;;25.37;69.79;96672.59;5071843;28;20230;-77
2023/06/26 11:43:13;;;;;;;6.13;4.10;;;;;;;25.37;70.78;96669.97;5066887;28;20191;-79
2023/06/26 11:46:38;;;;;;;5.83;4.17;;;;;;;25.15;73.10;96664.53;5086922;28;20198;-82
2023/06/26 11:50:06;;;;;;;8.97;6.50;;;;;;;25.47;72.56;96675.13;5085206;28;20195;-78
2023/06/26 11:53:34;;;;;;;4.60;4.03;;;;;;;25.58;73.21;96670.25;5085503;28;20284;-77
2023/06/26 11:57:00;;;;;;;6.37;4.57;;;;;;;25.86;70.18;96669.81;5068950;28;20275;-81
2023/06/26 12:00:21;;;;;;;6.73;4.00;;;;;;;25.62;69.16;96676.88;5066894;28;20233;-80
2023/06/26 12:03:03;;;;;;;8.30;3.87;;;;;;;25.81;70.94;96671.16;5093834;28;20246;-81
2023/06/26 12:05:32;;;;;;;4.83;4.03;;;;;;;25.91;69.24;96670.09;5088847;28;20195;-81
2023/06/26 12:08:08;;;;;;;8.53;4.70;;;;;;;25.88;68.44;96646.59;5072087;28;20258;-79
2023/06/26 12:11:18;;;;;;;5.63;4.03;;;;;;;25.94;66.60;96661.81;5088153;28;20196;-80
2023/06/26 12:14:41;;;;;;;6.30;4.30;;;;;;;26.30;65.78;96658.44;5084390;28;20197;-81
2023/06/26 12:18:03;;;;;;;9.00;4.30;;;;;;;26.64;64.90;96658.03;5083123;28;20199;-81
2023/06/26 12:21:25;;;;;;;5.90;4.50;;;;;;;26.87;62.73;96652.72;5084180;28;20333;-79
2023/06/26 12:24:47;;;;;;;13.20;5.50;;;;;;;26.92;59.63;96643.19;5084749;28;20196;-80
2023/06/26 12:28:09;;;;;;;6.17;4.00;;;;;;;26.69;57.61;96654.84;5101495;28;20760;-80
2023/06/26 12:31:31;;;;;;;7.87;3.97;;;;;;;26.87;58.03;96653.56;5083304;28;20197;-81
2023/06/26 12:34:53;;;;;;;9.00;3.97;;;;;;;25.77;60.16;96648.63;5084858;28;20185;-81
2023/06/26 12:38:20;;;;;;;6.03;3.70;;;;;;;25.72;59.67;96637.69;5106900;28;20183;-81
2023/06/26 12:41:41;;;;;;;6.53;3.97;;;;;;;26.05;60.17;96634.88;5106974;28;20269;-80
2023/06/26 12:45:04;;;;;;;4.47;3.30;;;;;;;25.93;56.94;96641.56;5103298;28;20195;-81
2023/06/26 12:47:48;;;;;;;7.20;4.30;;;;;;;25.61;57.25;96645.22;5105613;28;20203;-80
2023/06/26 12:50:23;;;;;;;4.63;3.40;;;;;;;25.67;58.43;96637.41;5104277;28;20180;-82
2023/06/26 12:53:31;;;;;;;5.87;4.60;;;;;;;25.93;60.54;96647.69;5067369;28;20202;-80
2023/06/26 12:56:51;;;;;;;7.83;4.60;;;;;;;25.84;57.75;96651.41;5086910;28;20695;-80
2023/06/26 13:00:12;;;;;;;7.60;4.00;;;;;;;25.82;58.63;96646.25;5088312;28;20273;-79
2023/06/26 13:03:33;;;;;;;6.17;4.40;;;;;;;26.09;57.20;96655.59;5088229;28;20191;-77
2023/06/26 13:06:57;;;;;;;11.17;4.90;;;;;;;26.56;56.49;96650.13;5089637;28;20241;-79
2023/06/26 13:10:18;;;;;;;5.10;3.50;;;;;;;26.46;55.44;96661.00;5086499;28;20259;-79
2023/06/26 13:13:39;;;;;;;5.50;3.70;;;;;;;26.51;53.95;96663.13;5087661;28;20770;-77
2023/06/26 13:16:59;;;;;;;7.03;3.87;;;;;;;26.78;54.17;96648.47;5087984;28;20197;-79
2023/06/26 13:20:25;;;;;;;5.63;3.70;;;;;;;26.36;56.85;96664.88;5088102;28;20235;-78
2023/06/26 13:23:07;;;;;;;5.53;3.50;;;;;;;26.50;55.35;96659.63;5089051;28;20191;-79
2023/06/26 13:25:34;;;;;;;7.20;3.70;;;;;;;26.53;56.19;96653.13;5055422;28;20247;-80
2023/06/26 13:28:42;;;;;;;4.30;3.57;;;;;;;25.80;56.27;96656.22;5088313;28;20193;-81
2023/06/26 13:32:03;;;;;;;5.70;3.80;;;;;;;25.62;57.94;96660.94;5086903;28;20208;-76
2023/06/26 13:35:24;;;;;;;6.53;3.80;;;;;;;25.44;59.04;96663.03;5087893;28;20209;-78
2023/06/26 13:38:45;;;;;;;6.00;4.17;;;;;;;25.22;59.83;96669.03;5073902;28;20209;-78
2023/06/26 13:42:06;;;;;;;5.77;4.10;;;;;;;25.25;60.39;96668.66;5107537;28;20202;-83
2023/06/26 13:45:27;;;;;;;5.30;3.57;;;;;;;25.41;59.91;96673.16;5107154;28;20314;-79
2023/06/26 13:48:49;;;;;;;5.67;3.80;;;;;;;25.43;59.57;96681.75;5107830;28;20633;-77
2023/06/26 13:52:10;;;;;;;7.70;4.40;;;;;;;25.17;59.23;96684.59;5093035;28;20202;-82
2023/06/26 13:55:32;;;;;;;6.93;4.87;;;;;;;25.26;59.88;96674.81;5107293;28;20287;-76
2023/06/26 13:58:54;;;;;;;6.77;4.50;;;;;;;24.95;60.03;96669.41;5108137;28;20199;-77
2023/06/26 14:01:35;;;;;;;5.23;3.77;;;;;;;24.92;60.61;96662.59;5106175;28;20186;-79
2023/06/26 14:04:03;;;;;;;5.77;3.03;;;;;;;25.02;60.54;96657.13;5107914;28;20206;-81
2023/06/26 14:06:34;;;;;;;5.80;3.33;;;;;;;25.46;59.55;96674.28;5108198;28;20274;-78
2023/06/26 14:09:08;;;;;;;5.43;3.23;;;;;;;25.42;59.86;96666.84;5107276;28;20312;-79
2023/06/26 14:11:36;;;;;;;4.13;2.80;;;;;;;25.18;59.98;96659.75;5109437;28;20191;-82
2023/06/26 14:14:04;;;;;;;5.77;3.37;;;;;;;25.01;59.99;96671.38;5089597;28;20280;-82
2023/06/26 14:16:32;;;;;;;3.37;2.70;;;;;;;25.10;61.04;96691.56;5108090;28;20189;-81
2023/06/26 14:19:00;;;;;;;4.30;2.83;;;;;;;24.78;62.98;96684.47;5106514;28;20198;-80
2023/06/26 14:21:27;;;;;;;7.13;3.53;;;;;;;24.58;65.46;96703.47;5102150;28;20547;-79
2023/06/26 14:23:55;;;;;;;3.77;3.30;;;;;;;24.42;64.63;96698.19;5096977;28;20249;-79
2023/06/26 14:26:22;;;;;;;5.10;2.90;;;;;;;24.29;67.54;96703.09;5108505;28;20566;-81
2023/06/26 14:28:49;;;;;;;8.47;3.43;;;;;;;24.23;68.93;96713.34;5107616;28;20215;-81
2023/06/26 14:31:19;;;;;;;3.57;3.10;;;;;;;24.14;68.17;96697.63;5106457;28;20680;-80
2023/06/26 14:33:47;;;;;;;4.20;3.00;;;;;;;24.31;69.09;96723.13;5108019;28;20192;-81
2023/06/26 14:36:15;;;;;;;5.93;3.30;;;;;;;24.20;70.09;96729.56;5111930;28;20200;-81
2023/06/26 14:38:43;;;;;;;5.37;3.40;;;;;;;23.84;71.73;96716.69;5118543;28;20193;-78
2023/06/26 14:41:12;;;;;;;5.40;3.40;;;;;;;23.80;71.40;96721.44;5110914;28;20219;-79
2023/06/26 14:43:40;;;;;;;5.10;3.40;;;;;;;23.89;71.42;96723.13;5090570;28;20192;-80
2023/06/26 14:46:10;;;;;;;5.97;3.50;;;;;;;23.65;72.54;96727.50;5108950;28;20243;-80
2023/06/26 14:48:39;;;;;;;2.27;1.80;;;;;;;23.18;70.00;96729.69;5106657;28;20304;-82
2023/06/26 14:51:07;;;;;;;1.30;1.20;;;;;;;22.76;69.38;96741.91;5107535;28;20211;-82
2023/06/26 14:53:34;;;;;;;2.07;1.07;;;;;;;22.56;69.40;96749.13;5107353;28;20203;-85
2023/06/26 14:56:02;;;;;;;0.80;0.80;;;;;;;22.27;69.74;96744.06;5106920;28;20670;-74
2023/06/26 14:58:30;;;;;;;0.70;0.70;;;;;;;21.99;71.40;96745.03;5106479;28;20877;-79
2023/06/26 15:00:58;;;;;;;1.60;1.10;;;;;;;22.14;72.31;96748.00;5107922;28;20700;-81
2023/06/26 15:03:25;;;;;;;1.53;1.00;;;;;;;22.06;72.01;96746.13;5107411;28;20190;-83
2023/06/26 15:05:55;;;;;;;1.40;1.03;;;;;;;21.84;72.88;96757.06;5105690;28;20198;-82
2023/06/26 15:09:03;;;;;;;1.30;1.07;;;;;;;21.60;74.02;96738.25;5108198;28;20220;-79
2023/06/26 15:12:24;;;;;;;1.17;0.97;;;;;;;21.65;73.08;96741.31;5107419;28;20204;-81
2023/06/26 15:15:45;;;;;;;2.87;1.30;;;;;;;21.86;73.27;96737.47;5089639;28;20803;-79